Prestwick Arpt, United Kingdom

9:45 AM GMT on February 23, 2017 (GMT +0000)
Crummieholm Gardens | | Change Station

Elev 95 ft 55.55 °N, 4.63 °W | Updated 3 minutes ago

Light Rain
Light Rain
34.9 °F
Feels Like 31 °F
N
4.3
Wind Variable Wind from North
Gusts 11.2 mph

Today
High -- | Low -- °F
--% Chance of Precip.
Yesterday
High -- | Low -- °F
Precip. -- in
Pressure 28.97 in
Visibility 6.2 miles
Clouds Few 1000 ft
Scattered Clouds 1900 ft
Windchill 31 °F
Dew Point 35 °F
Humidity 100%
Rainfall 0.36 in
Snow Depth Not available.
7:23 AM 5:40 PM
Waning Crescent, 11% visible
METAR EGPK 230920Z 04012KT 350V070 9999 -RA FEW010 SCT019 02/00 Q0981
Pressure 28.97 in
Visibility 6.2 miles
Clouds Few 1000 ft
Scattered Clouds 1900 ft
Windchill 31 °F
Dew Point 35 °F
Humidity 100%
Rainfall 0.36 in
Snow Depth Not available.
7:23 AM 5:40 PM
Waning Crescent, 11% visible
METAR EGPK 230920Z 04012KT 350V070 9999 -RA FEW010 SCT019 02/00 Q0981

Get Your Daily Forecast Email!

Thanks for signing up!

Be on the lookout for a verification email in your inbox.

You'll start receiving the daily forecast at 8 AM.

×

10-Day Weather Forecast

×

Almanac

Astronomy

Feb. 23, 2017 Rise Set
Actual Time
Civil Twilight
Nautical Twilight
Astronomical Twilight
Moon
Length of Visible Light
Length of Day
Tomorrow will be .
, % of the Moon is Illuminated

Today's Extremes

Country Highs Country Lows

Community

WunderPhotos

Upload Photos

1,962,540 photos uploaded!

WunderBlog® & News

Nearby

Air Quality

  Air Quality AQ Index Pollutant
Not available.

Snow Depth

Station Depth Elevation

Earthquake Activity

City Distance Mag. Time & Date
Minimum magnitude displayed is 2.5.

Coastal Water Temperatures

Place Temperature

Stations

Nearby Weather Stations

Station Location Temp. Windchill Dew Point Humidity Wind Precip. Elev Updated Type